OCN1ZM EDDF-EINN
Flight info
| Callsign | OCN1ZM |
|---|---|
| Flight time | 1h 58m |
| Altitude | 38000 |
| Route | OBOKA3M/25C OBOKA Z29 TORNU DCT BREDA DCT GALSO Q63 ERING L179 UGBET Q60 OKSAW DCT BIBPE DCT FELCA DCT NICXI DCT OFSOX DCT SLANY DCT TIPUR TIPUR2D |
| Aircraft | A320/M-SDE2E3FGIJ1LORWXYZ/HB1 |
Departure
| Time | 2026-05-04 13:29 |
|---|---|
| Airport | Frankfurt Main Airport (EDDF) |
Arrival
| Time | 2026-05-04 15:28 |
|---|---|
| Airport | Shannon Airport (EINN) |
| Time | Latitude | Longitude | Altitude | Speed | Heading |
|---|---|---|---|---|---|
| 2026-05-04 12:52 | 50.04615 | 8.57198 | 362 ft | 0 kts | 3° |
| 2026-05-04 13:20 | 50.04612 | 8.57197 | 363 ft | 3 kts | 3° |
| 2026-05-04 13:20 | 50.04585 | 8.57195 | 361 ft | 4 kts | 3° |
| 2026-05-04 13:20 | 50.04564 | 8.57193 | 362 ft | 4 kts | 12° |
| 2026-05-04 13:20 | 50.04540 | 8.57177 | 361 ft | 4 kts | 44° |
| 2026-05-04 13:21 | 50.04526 | 8.57144 | 357 ft | 4 kts | 72° |
| 2026-05-04 13:21 | 50.04520 | 8.57117 | 357 ft | 0 kts | 70° |
| 2026-05-04 13:22 | 50.04520 | 8.57116 | 357 ft | 0 kts | 70° |
| 2026-05-04 13:23 | 50.04520 | 8.57117 | 357 ft | 0 kts | 70° |
| 2026-05-04 13:24 | 50.04526 | 8.57142 | 357 ft | 4 kts | 70° |
| 2026-05-04 13:24 | 50.04541 | 8.57207 | 364 ft | 9 kts | 70° |
| 2026-05-04 13:24 | 50.04568 | 8.57319 | 359 ft | 13 kts | 69° |
| 2026-05-04 13:25 | 50.04657 | 8.57680 | 363 ft | 22 kts | 70° |
| 2026-05-04 13:25 | 50.04709 | 8.57897 | 358 ft | 18 kts | 69° |
| 2026-05-04 13:25 | 50.04675 | 8.57977 | 359 ft | 7 kts | 150° |
| 2026-05-04 13:25 | 50.04606 | 8.58019 | 360 ft | 14 kts | 160° |
| 2026-05-04 13:26 | 50.04573 | 8.58150 | 369 ft | 18 kts | 68° |
| 2026-05-04 13:26 | 50.04616 | 8.58325 | 371 ft | 17 kts | 70° |
| 2026-05-04 13:26 | 50.04652 | 8.58474 | 369 ft | 11 kts | 69° |
| 2026-05-04 13:26 | 50.04634 | 8.58565 | 369 ft | 9 kts | 144° |
| 2026-05-04 13:27 | 50.04587 | 8.58595 | 370 ft | 6 kts | 163° |
| 2026-05-04 13:27 | 50.04537 | 8.58620 | 371 ft | 11 kts | 161° |
| 2026-05-04 13:27 | 50.04485 | 8.58581 | 370 ft | 5 kts | 246° |
| 2026-05-04 13:27 | 50.04481 | 8.58563 | 370 ft | 0 kts | 250° |
| 2026-05-04 13:28 | 50.04479 | 8.58556 | 370 ft | 5 kts | 250° |
| 2026-05-04 13:29 | 50.04382 | 8.58149 | 370 ft | 78 kts | 249° |
| 2026-05-04 13:29 | 50.04116 | 8.57039 | 366 ft | 137 kts | 249° |
| 2026-05-04 13:29 | 50.03722 | 8.55445 | 531 ft | 169 kts | 247° |
| 2026-05-04 13:29 | 50.03268 | 8.53698 | 1095 ft | 178 kts | 247° |
| 2026-05-04 13:30 | 50.02829 | 8.51895 | 1794 ft | 182 kts | 249° |
| 2026-05-04 13:30 | 50.02203 | 8.50114 | 2166 ft | 200 kts | 222° |
| 2026-05-04 13:30 | 50.00937 | 8.49166 | 2821 ft | 207 kts | 197° |
| 2026-05-04 13:30 | 49.99542 | 8.48564 | 3659 ft | 208 kts | 196° |
| 2026-05-04 13:31 | 49.98143 | 8.47962 | 4473 ft | 210 kts | 196° |
| 2026-05-04 13:31 | 49.96725 | 8.47353 | 5270 ft | 212 kts | 196° |
| 2026-05-04 13:31 | 49.95286 | 8.46723 | 5931 ft | 224 kts | 197° |
| 2026-05-04 13:31 | 49.93718 | 8.46004 | 6398 ft | 244 kts | 197° |
| 2026-05-04 13:32 | 49.92116 | 8.45026 | 7150 ft | 251 kts | 212° |
| 2026-05-04 13:32 | 49.90801 | 8.43223 | 8306 ft | 259 kts | 232° |
| 2026-05-04 13:32 | 49.89861 | 8.40858 | 8754 ft | 260 kts | 239° |
| 2026-05-04 13:32 | 49.89027 | 8.38359 | 9618 ft | 262 kts | 249° |
| 2026-05-04 13:33 | 49.88631 | 8.35563 | 10327 ft | 274 kts | 265° |
| 2026-05-04 13:33 | 49.88712 | 8.32474 | 10630 ft | 299 kts | 273° |
| 2026-05-04 13:33 | 49.88916 | 8.29140 | 10994 ft | 319 kts | 277° |
| 2026-05-04 13:33 | 49.89597 | 8.25799 | 11689 ft | 330 kts | 294° |
| 2026-05-04 13:34 | 49.90844 | 8.22830 | 12481 ft | 335 kts | 303° |
| 2026-05-04 13:34 | 49.92240 | 8.19909 | 13275 ft | 338 kts | 303° |
| 2026-05-04 13:34 | 49.93662 | 8.16968 | 14008 ft | 342 kts | 306° |
| 2026-05-04 13:34 | 49.95355 | 8.14319 | 14684 ft | 350 kts | 316° |
| 2026-05-04 13:35 | 49.97214 | 8.11836 | 15347 ft | 353 kts | 316° |
| 2026-05-04 13:35 | 50.00982 | 8.06803 | 16620 ft | 361 kts | 316° |
| 2026-05-04 13:35 | 50.02895 | 8.04245 | 17255 ft | 364 kts | 316° |
| 2026-05-04 13:36 | 50.04827 | 8.01661 | 17868 ft | 368 kts | 316° |
| 2026-05-04 13:36 | 50.06776 | 7.99052 | 18480 ft | 371 kts | 316° |
| 2026-05-04 13:36 | 50.08712 | 7.96457 | 19041 ft | 374 kts | 316° |
| 2026-05-04 13:36 | 50.10694 | 7.93794 | 19633 ft | 377 kts | 316° |
| 2026-05-04 13:37 | 50.12690 | 7.91107 | 20209 ft | 380 kts | 316° |
| 2026-05-04 13:37 | 50.14697 | 7.88401 | 20755 ft | 383 kts | 315° |
| 2026-05-04 13:37 | 50.16722 | 7.85666 | 21294 ft | 386 kts | 315° |
| 2026-05-04 13:37 | 50.18069 | 7.83846 | 21643 ft | 388 kts | 315° |
| 2026-05-04 13:38 | 50.20812 | 7.80140 | 22315 ft | 391 kts | 315° |
| 2026-05-04 13:38 | 50.22878 | 7.77347 | 22806 ft | 394 kts | 315° |
| 2026-05-04 13:38 | 50.25023 | 7.74626 | 23287 ft | 400 kts | 321° |
| 2026-05-04 13:38 | 50.27423 | 7.72459 | 23742 ft | 407 kts | 332° |
| 2026-05-04 13:39 | 50.30038 | 7.70673 | 24199 ft | 410 kts | 333° |
| 2026-05-04 13:39 | 50.32668 | 7.68885 | 24642 ft | 413 kts | 333° |
| 2026-05-04 13:39 | 50.35313 | 7.67082 | 25062 ft | 416 kts | 332° |
| 2026-05-04 13:39 | 50.37974 | 7.65260 | 25474 ft | 418 kts | 332° |
| 2026-05-04 13:40 | 50.40620 | 7.63444 | 25884 ft | 421 kts | 332° |
| 2026-05-04 13:40 | 50.43308 | 7.61594 | 26292 ft | 424 kts | 332° |
| 2026-05-04 13:40 | 50.46019 | 7.59725 | 26671 ft | 426 kts | 332° |
| 2026-05-04 13:40 | 50.48741 | 7.57841 | 27035 ft | 429 kts | 332° |
| 2026-05-04 13:41 | 50.51482 | 7.55944 | 27396 ft | 431 kts | 332° |
| 2026-05-04 13:41 | 50.54244 | 7.54037 | 27756 ft | 433 kts | 331° |
| 2026-05-04 13:41 | 50.56907 | 7.51849 | 28105 ft | 431 kts | 322° |
| 2026-05-04 13:42 | 50.61949 | 7.46683 | 28778 ft | 434 kts | 321° |
| 2026-05-04 13:42 | 50.64452 | 7.44115 | 29106 ft | 437 kts | 321° |
| 2026-05-04 13:42 | 50.67007 | 7.41496 | 29446 ft | 439 kts | 321° |
| 2026-05-04 13:42 | 50.69576 | 7.38867 | 29776 ft | 441 kts | 321° |
| 2026-05-04 13:43 | 50.72065 | 7.36050 | 30085 ft | 438 kts | 314° |
| 2026-05-04 13:43 | 50.74229 | 7.32692 | 30390 ft | 433 kts | 305° |
| 2026-05-04 13:43 | 50.76011 | 7.28897 | 30685 ft | 428 kts | 296° |
| 2026-05-04 13:43 | 50.77435 | 7.24780 | 30972 ft | 426 kts | 291° |
| 2026-05-04 13:44 | 50.78788 | 7.20607 | 31252 ft | 427 kts | 291° |
| 2026-05-04 13:44 | 50.80133 | 7.16474 | 31550 ft | 428 kts | 291° |
| 2026-05-04 13:44 | 50.81492 | 7.12303 | 31952 ft | 426 kts | 291° |
| 2026-05-04 13:44 | 50.82848 | 7.08139 | 32341 ft | 425 kts | 291° |
| 2026-05-04 13:45 | 50.84195 | 7.03980 | 32710 ft | 423 kts | 291° |
| 2026-05-04 13:45 | 50.85533 | 6.99836 | 33081 ft | 422 kts | 291° |
| 2026-05-04 13:45 | 50.86869 | 6.95695 | 33445 ft | 421 kts | 291° |
| 2026-05-04 13:45 | 50.88198 | 6.91576 | 33806 ft | 420 kts | 291° |
| 2026-05-04 13:46 | 50.89522 | 6.87464 | 34165 ft | 418 kts | 291° |
| 2026-05-04 13:46 | 50.90839 | 6.83359 | 34483 ft | 417 kts | 291° |
| 2026-05-04 13:46 | 50.92153 | 6.79252 | 34762 ft | 417 kts | 291° |
| 2026-05-04 13:46 | 50.93466 | 6.75151 | 35038 ft | 417 kts | 291° |
| 2026-05-04 13:47 | 50.94779 | 6.71045 | 35303 ft | 418 kts | 291° |
| 2026-05-04 13:47 | 50.96094 | 6.66932 | 35565 ft | 418 kts | 291° |
| 2026-05-04 13:47 | 50.97390 | 6.62864 | 35823 ft | 417 kts | 291° |
| 2026-05-04 13:47 | 50.98660 | 6.58865 | 36069 ft | 417 kts | 291° |
| 2026-05-04 13:48 | 51.00002 | 6.54629 | 36309 ft | 417 kts | 291° |
| 2026-05-04 13:48 | 51.01309 | 6.50504 | 36512 ft | 418 kts | 291° |
| 2026-05-04 13:48 | 51.02173 | 6.47773 | 36652 ft | 418 kts | 291° |
| 2026-05-04 13:48 | 51.03901 | 6.42306 | 37009 ft | 416 kts | 291° |
| 2026-05-04 13:49 | 51.05196 | 6.38211 | 37349 ft | 413 kts | 291° |
| 2026-05-04 13:49 | 51.06481 | 6.34138 | 37592 ft | 411 kts | 291° |
| 2026-05-04 13:49 | 51.07329 | 6.31439 | 37729 ft | 411 kts | 291° |
| 2026-05-04 13:49 | 51.08607 | 6.27358 | 37913 ft | 411 kts | 291° |
| 2026-05-04 13:50 | 51.11165 | 6.19182 | 38000 ft | 412 kts | 291° |
| 2026-05-04 13:50 | 51.13676 | 6.10975 | 37999 ft | 410 kts | 287° |
| 2026-05-04 13:51 | 51.15253 | 6.02353 | 37999 ft | 405 kts | 279° |
| 2026-05-04 13:51 | 51.16654 | 5.93716 | 37998 ft | 405 kts | 280° |
| 2026-05-04 13:52 | 51.19329 | 5.80851 | 37995 ft | 414 kts | 295° |
| 2026-05-04 13:53 | 51.22371 | 5.73047 | 37992 ft | 417 kts | 297° |
| 2026-05-04 13:53 | 51.25445 | 5.65164 | 37992 ft | 417 kts | 296° |
| 2026-05-04 13:54 | 51.30019 | 5.53369 | 37990 ft | 418 kts | 296° |
| 2026-05-04 13:55 | 51.34604 | 5.41513 | 37989 ft | 417 kts | 296° |
| 2026-05-04 13:55 | 51.39181 | 5.29619 | 37986 ft | 418 kts | 296° |
| 2026-05-04 13:56 | 51.42222 | 5.21672 | 37985 ft | 418 kts | 296° |
| 2026-05-04 13:57 | 51.46767 | 5.09781 | 37991 ft | 419 kts | 296° |
| 2026-05-04 13:58 | 51.52835 | 4.93806 | 37997 ft | 419 kts | 296° |
| 2026-05-04 13:58 | 51.56468 | 4.81309 | 37999 ft | 408 kts | 277° |
| 2026-05-04 13:59 | 51.57455 | 4.72349 | 37995 ft | 407 kts | 276° |
| 2026-05-04 14:00 | 51.58916 | 4.58870 | 37997 ft | 408 kts | 276° |
| 2026-05-04 14:00 | 51.60365 | 4.45363 | 37997 ft | 409 kts | 276° |
| 2026-05-04 14:01 | 51.61318 | 4.36408 | 37997 ft | 409 kts | 275° |
| 2026-05-04 14:02 | 51.62747 | 4.22857 | 38005 ft | 409 kts | 276° |
| 2026-05-04 14:02 | 51.63687 | 4.13811 | 38007 ft | 409 kts | 275° |
| 2026-05-04 14:03 | 51.64615 | 4.04839 | 37995 ft | 409 kts | 275° |
| 2026-05-04 14:03 | 51.65543 | 3.95781 | 37990 ft | 408 kts | 275° |
| 2026-05-04 14:04 | 51.66913 | 3.82230 | 37987 ft | 409 kts | 275° |
| 2026-05-04 14:04 | 51.67824 | 3.73169 | 37992 ft | 410 kts | 275° |
| 2026-05-04 14:05 | 51.69185 | 3.59585 | 38004 ft | 411 kts | 275° |
| 2026-05-04 14:06 | 51.70072 | 3.50486 | 38013 ft | 411 kts | 275° |
| 2026-05-04 14:06 | 51.70951 | 3.41421 | 38019 ft | 412 kts | 275° |
| 2026-05-04 14:07 | 51.71835 | 3.32278 | 38027 ft | 412 kts | 275° |
| 2026-05-04 14:07 | 51.72715 | 3.23128 | 38029 ft | 412 kts | 275° |
| 2026-05-04 14:08 | 51.73006 | 3.13977 | 38031 ft | 406 kts | 260° |
| 2026-05-04 14:08 | 51.72231 | 3.04996 | 38021 ft | 406 kts | 259° |
| 2026-05-04 14:09 | 51.71052 | 2.91414 | 38017 ft | 407 kts | 259° |
| 2026-05-04 14:10 | 51.69868 | 2.77853 | 38020 ft | 408 kts | 259° |
| 2026-05-04 14:10 | 51.69053 | 2.68817 | 38017 ft | 409 kts | 259° |
| 2026-05-04 14:11 | 51.68233 | 2.59733 | 38018 ft | 409 kts | 259° |
| 2026-05-04 14:11 | 51.67006 | 2.46095 | 38014 ft | 409 kts | 259° |
| 2026-05-04 14:12 | 51.66184 | 2.37017 | 38008 ft | 409 kts | 259° |
| 2026-05-04 14:13 | 51.64923 | 2.23446 | 38008 ft | 410 kts | 259° |
| 2026-05-04 14:13 | 51.64072 | 2.14362 | 38010 ft | 410 kts | 259° |
| 2026-05-04 14:14 | 51.63220 | 2.05263 | 38013 ft | 410 kts | 259° |
| 2026-05-04 14:14 | 51.61956 | 1.91651 | 38012 ft | 411 kts | 259° |
| 2026-05-04 14:15 | 51.60245 | 1.73477 | 38011 ft | 412 kts | 259° |
| 2026-05-04 14:16 | 51.59159 | 1.59786 | 38010 ft | 414 kts | 269° |
| 2026-05-04 14:17 | 51.59746 | 1.45843 | 38014 ft | 416 kts | 271° |
| 2026-05-04 14:18 | 51.60338 | 1.31941 | 38017 ft | 417 kts | 271° |
| 2026-05-04 14:19 | 51.61086 | 1.13576 | 38020 ft | 418 kts | 271° |
| 2026-05-04 14:19 | 51.61457 | 1.04225 | 38021 ft | 418 kts | 271° |
| 2026-05-04 14:20 | 51.61811 | 0.94919 | 38023 ft | 419 kts | 271° |
| 2026-05-04 14:20 | 51.62163 | 0.85553 | 38018 ft | 419 kts | 271° |
| 2026-05-04 14:21 | 51.62684 | 0.71455 | 38014 ft | 420 kts | 271° |
| 2026-05-04 14:21 | 51.63026 | 0.62106 | 38015 ft | 421 kts | 271° |
| 2026-05-04 14:22 | 51.63356 | 0.52683 | 38017 ft | 422 kts | 271° |
| 2026-05-04 14:22 | 51.63683 | 0.43298 | 38019 ft | 422 kts | 271° |
| 2026-05-04 14:23 | 51.64159 | 0.29118 | 38017 ft | 422 kts | 271° |
| 2026-05-04 14:24 | 51.64460 | 0.19645 | 38021 ft | 423 kts | 271° |
| 2026-05-04 14:24 | 51.64094 | 0.10308 | 38021 ft | 420 kts | 258° |
| 2026-05-04 14:25 | 51.63087 | 0.01005 | 38024 ft | 421 kts | 258° |
| 2026-05-04 14:25 | 51.61864 | -0.13019 | 38009 ft | 425 kts | 270° |
| 2026-05-04 14:26 | 51.62373 | -0.22470 | 38009 ft | 428 kts | 274° |
| 2026-05-04 14:26 | 51.62956 | -0.32044 | 38015 ft | 430 kts | 274° |
| 2026-05-04 14:27 | 51.63529 | -0.41633 | 38021 ft | 431 kts | 274° |
| 2026-05-04 14:27 | 51.64099 | -0.51215 | 38025 ft | 431 kts | 274° |
| 2026-05-04 14:28 | 51.64663 | -0.60869 | 38032 ft | 432 kts | 274° |
| 2026-05-04 14:28 | 51.65215 | -0.70450 | 38037 ft | 432 kts | 274° |
| 2026-05-04 14:29 | 51.66309 | -0.89739 | 38041 ft | 432 kts | 274° |
| 2026-05-04 14:30 | 51.66842 | -0.99324 | 38042 ft | 432 kts | 274° |
| 2026-05-04 14:31 | 51.67633 | -1.13816 | 38041 ft | 432 kts | 274° |
| 2026-05-04 14:32 | 51.68643 | -1.33081 | 38046 ft | 432 kts | 274° |
| 2026-05-04 14:32 | 51.69141 | -1.42751 | 38052 ft | 432 kts | 273° |
| 2026-05-04 14:33 | 51.69627 | -1.52349 | 38055 ft | 432 kts | 273° |
| 2026-05-04 14:33 | 51.70105 | -1.62005 | 38058 ft | 432 kts | 273° |
| 2026-05-04 14:34 | 51.70599 | -1.71667 | 38059 ft | 432 kts | 275° |
| 2026-05-04 14:34 | 51.71275 | -1.81242 | 38056 ft | 432 kts | 276° |
| 2026-05-04 14:35 | 51.72032 | -1.90879 | 38055 ft | 432 kts | 276° |
| 2026-05-04 14:35 | 51.72746 | -2.00466 | 38054 ft | 432 kts | 275° |
| 2026-05-04 14:36 | 51.73419 | -2.10108 | 38057 ft | 432 kts | 275° |
| 2026-05-04 14:36 | 51.74078 | -2.19750 | 38057 ft | 432 kts | 275° |
| 2026-05-04 14:37 | 51.74732 | -2.29393 | 38056 ft | 432 kts | 275° |
| 2026-05-04 14:37 | 51.75383 | -2.39053 | 38059 ft | 433 kts | 275° |
| 2026-05-04 14:38 | 51.75923 | -2.47086 | 38061 ft | 433 kts | 275° |
| 2026-05-04 14:38 | 51.76664 | -2.58339 | 38059 ft | 433 kts | 275° |
| 2026-05-04 14:39 | 51.77191 | -2.66451 | 38057 ft | 434 kts | 275° |
| 2026-05-04 14:39 | 51.77813 | -2.76086 | 38055 ft | 434 kts | 275° |
| 2026-05-04 14:40 | 51.78740 | -2.90614 | 38051 ft | 434 kts | 275° |
| 2026-05-04 14:40 | 51.79343 | -3.00325 | 38043 ft | 434 kts | 275° |
| 2026-05-04 14:41 | 51.79937 | -3.10048 | 38042 ft | 435 kts | 275° |
| 2026-05-04 14:42 | 51.81112 | -3.29476 | 38042 ft | 436 kts | 275° |
| 2026-05-04 14:42 | 51.81690 | -3.39227 | 38040 ft | 436 kts | 275° |
| 2026-05-04 14:43 | 51.82247 | -3.49003 | 38037 ft | 436 kts | 275° |
| 2026-05-04 14:43 | 51.83157 | -3.58700 | 38037 ft | 437 kts | 281° |
| 2026-05-04 14:44 | 51.84416 | -3.68320 | 38035 ft | 437 kts | 281° |
| 2026-05-04 14:44 | 51.85659 | -3.77952 | 38035 ft | 438 kts | 281° |
| 2026-05-04 14:45 | 51.86880 | -3.87555 | 38038 ft | 438 kts | 281° |
| 2026-05-04 14:45 | 51.88105 | -3.97207 | 38039 ft | 438 kts | 281° |
| 2026-05-04 14:46 | 51.89334 | -4.06865 | 38041 ft | 438 kts | 281° |
| 2026-05-04 14:46 | 51.90544 | -4.16536 | 38043 ft | 438 kts | 281° |
| 2026-05-04 14:47 | 51.91747 | -4.26212 | 38043 ft | 438 kts | 281° |
| 2026-05-04 14:47 | 51.92946 | -4.35893 | 38042 ft | 438 kts | 281° |
| 2026-05-04 14:48 | 51.94130 | -4.45575 | 38042 ft | 438 kts | 281° |
| 2026-05-04 14:48 | 51.95309 | -4.55262 | 38036 ft | 438 kts | 281° |
| 2026-05-04 14:49 | 51.96470 | -4.64892 | 38033 ft | 438 kts | 281° |
| 2026-05-04 14:49 | 51.97644 | -4.74596 | 38032 ft | 439 kts | 281° |
| 2026-05-04 14:50 | 51.98807 | -4.84325 | 38028 ft | 439 kts | 281° |
| 2026-05-04 14:50 | 51.99960 | -4.94058 | 38031 ft | 439 kts | 281° |
| 2026-05-04 14:51 | 52.01097 | -5.03804 | 38034 ft | 440 kts | 281° |
| 2026-05-04 14:51 | 52.02234 | -5.13563 | 38042 ft | 439 kts | 281° |
| 2026-05-04 14:52 | 52.03661 | -5.23168 | 38043 ft | 439 kts | 289° |
| 2026-05-04 14:52 | 52.05578 | -5.32571 | 38040 ft | 439 kts | 289° |
| 2026-05-04 14:53 | 52.07472 | -5.41996 | 38038 ft | 439 kts | 289° |
| 2026-05-04 14:53 | 52.09363 | -5.51434 | 38037 ft | 439 kts | 289° |
| 2026-05-04 14:54 | 52.11239 | -5.60838 | 38037 ft | 440 kts | 288° |
| 2026-05-04 14:54 | 52.13119 | -5.70309 | 38042 ft | 440 kts | 289° |
| 2026-05-04 14:55 | 52.14997 | -5.79802 | 38046 ft | 441 kts | 288° |
| 2026-05-04 14:55 | 52.16882 | -5.89337 | 38051 ft | 443 kts | 289° |
| 2026-05-04 14:56 | 52.18790 | -5.98884 | 38057 ft | 443 kts | 289° |
| 2026-05-04 14:56 | 52.20689 | -6.08433 | 38070 ft | 442 kts | 288° |
| 2026-05-04 14:57 | 52.22573 | -6.17988 | 38080 ft | 442 kts | 288° |
| 2026-05-04 14:57 | 52.24440 | -6.27545 | 38082 ft | 442 kts | 288° |
| 2026-05-04 14:58 | 52.26294 | -6.37030 | 37792 ft | 441 kts | 288° |
| 2026-05-04 14:58 | 52.27224 | -6.41799 | 37177 ft | 441 kts | 289° |
| 2026-05-04 14:58 | 52.28149 | -6.46568 | 36538 ft | 441 kts | 289° |
| 2026-05-04 14:59 | 52.29077 | -6.51354 | 35935 ft | 441 kts | 289° |
| 2026-05-04 14:59 | 52.30000 | -6.56125 | 35328 ft | 441 kts | 290° |
| 2026-05-04 14:59 | 52.31842 | -6.65689 | 34230 ft | 439 kts | 290° |
| 2026-05-04 15:00 | 52.32749 | -6.70443 | 33707 ft | 437 kts | 290° |
| 2026-05-04 15:00 | 52.33649 | -6.75173 | 33209 ft | 435 kts | 291° |
| 2026-05-04 15:00 | 52.34547 | -6.79891 | 32723 ft | 432 kts | 291° |
| 2026-05-04 15:01 | 52.36316 | -6.89224 | 31762 ft | 427 kts | 291° |
| 2026-05-04 15:01 | 52.37192 | -6.93844 | 31290 ft | 424 kts | 291° |
| 2026-05-04 15:01 | 52.38060 | -6.98442 | 30825 ft | 421 kts | 291° |
| 2026-05-04 15:01 | 52.38921 | -7.03005 | 30347 ft | 419 kts | 292° |
| 2026-05-04 15:02 | 52.39776 | -7.07547 | 29882 ft | 416 kts | 292° |
| 2026-05-04 15:02 | 52.40619 | -7.12053 | 29422 ft | 413 kts | 292° |
| 2026-05-04 15:02 | 52.41455 | -7.16533 | 28972 ft | 410 kts | 292° |
| 2026-05-04 15:02 | 52.42287 | -7.20985 | 28512 ft | 407 kts | 292° |
| 2026-05-04 15:03 | 52.43102 | -7.25343 | 28086 ft | 404 kts | 291° |
| 2026-05-04 15:03 | 52.43928 | -7.29775 | 27692 ft | 399 kts | 291° |
| 2026-05-04 15:03 | 52.44719 | -7.34044 | 27265 ft | 395 kts | 291° |
| 2026-05-04 15:03 | 52.45512 | -7.38339 | 26813 ft | 392 kts | 291° |
| 2026-05-04 15:04 | 52.46299 | -7.42615 | 26356 ft | 390 kts | 290° |
| 2026-05-04 15:04 | 52.47077 | -7.46852 | 25912 ft | 387 kts | 290° |
| 2026-05-04 15:04 | 52.47847 | -7.51061 | 25456 ft | 384 kts | 290° |
| 2026-05-04 15:04 | 52.48609 | -7.55243 | 25019 ft | 381 kts | 290° |
| 2026-05-04 15:05 | 52.49368 | -7.59402 | 24559 ft | 379 kts | 290° |
| 2026-05-04 15:05 | 52.50122 | -7.63527 | 24126 ft | 376 kts | 290° |
| 2026-05-04 15:05 | 52.50870 | -7.67629 | 23681 ft | 374 kts | 290° |
| 2026-05-04 15:05 | 52.51610 | -7.71702 | 23248 ft | 371 kts | 290° |
| 2026-05-04 15:06 | 52.52343 | -7.75750 | 22847 ft | 368 kts | 290° |
| 2026-05-04 15:06 | 52.53069 | -7.79771 | 22453 ft | 366 kts | 290° |
| 2026-05-04 15:06 | 52.53787 | -7.83763 | 22064 ft | 363 kts | 289° |
| 2026-05-04 15:07 | 52.55206 | -7.91656 | 21276 ft | 358 kts | 289° |
| 2026-05-04 15:07 | 52.55908 | -7.95557 | 20890 ft | 355 kts | 289° |
| 2026-05-04 15:07 | 52.56601 | -7.99434 | 20506 ft | 352 kts | 289° |
| 2026-05-04 15:07 | 52.57285 | -8.03288 | 20118 ft | 350 kts | 289° |
| 2026-05-04 15:08 | 52.57950 | -8.07046 | 19676 ft | 345 kts | 289° |
| 2026-05-04 15:08 | 52.58516 | -8.10873 | 19181 ft | 344 kts | 279° |
| 2026-05-04 15:08 | 52.58584 | -8.14797 | 18689 ft | 344 kts | 266° |
| 2026-05-04 15:08 | 52.58184 | -8.18659 | 18213 ft | 341 kts | 260° |
| 2026-05-04 15:09 | 52.57722 | -8.22468 | 17750 ft | 338 kts | 260° |
| 2026-05-04 15:09 | 52.57269 | -8.26245 | 17289 ft | 335 kts | 260° |
| 2026-05-04 15:09 | 52.56824 | -8.29983 | 16830 ft | 332 kts | 260° |
| 2026-05-04 15:10 | 52.55946 | -8.37371 | 15911 ft | 327 kts | 260° |
| 2026-05-04 15:10 | 52.55508 | -8.41020 | 15479 ft | 324 kts | 260° |
| 2026-05-04 15:10 | 52.54632 | -8.48234 | 14609 ft | 319 kts | 259° |
| 2026-05-04 15:11 | 52.54196 | -8.51794 | 14178 ft | 317 kts | 259° |
| 2026-05-04 15:11 | 52.53763 | -8.55323 | 13750 ft | 314 kts | 259° |
| 2026-05-04 15:11 | 52.53334 | -8.58821 | 13313 ft | 311 kts | 259° |
| 2026-05-04 15:11 | 52.52907 | -8.62287 | 12879 ft | 308 kts | 259° |
| 2026-05-04 15:12 | 52.52488 | -8.65684 | 12436 ft | 306 kts | 259° |
| 2026-05-04 15:12 | 52.52067 | -8.69095 | 11996 ft | 304 kts | 259° |
| 2026-05-04 15:12 | 52.51647 | -8.72482 | 11556 ft | 301 kts | 259° |
| 2026-05-04 15:12 | 52.51230 | -8.75832 | 11119 ft | 299 kts | 259° |
| 2026-05-04 15:13 | 52.50815 | -8.79155 | 10677 ft | 296 kts | 259° |
| 2026-05-04 15:13 | 52.50404 | -8.82449 | 10240 ft | 293 kts | 259° |
| 2026-05-04 15:13 | 52.50007 | -8.85648 | 10082 ft | 279 kts | 259° |
| 2026-05-04 15:13 | 52.49624 | -8.88703 | 9854 ft | 269 kts | 259° |
| 2026-05-04 15:14 | 52.49247 | -8.91690 | 9487 ft | 266 kts | 259° |
| 2026-05-04 15:14 | 52.48875 | -8.94652 | 9146 ft | 264 kts | 259° |
| 2026-05-04 15:14 | 52.48506 | -8.97591 | 8834 ft | 262 kts | 259° |
| 2026-05-04 15:14 | 52.48139 | -9.00506 | 8498 ft | 260 kts | 259° |
| 2026-05-04 15:15 | 52.47771 | -9.03402 | 8219 ft | 256 kts | 259° |
| 2026-05-04 15:15 | 52.47413 | -9.06204 | 7932 ft | 248 kts | 260° |
| 2026-05-04 15:15 | 52.47359 | -9.08978 | 7500 ft | 243 kts | 282° |
| 2026-05-04 15:16 | 52.49063 | -9.13499 | 6692 ft | 236 kts | 323° |
| 2026-05-04 15:16 | 52.50346 | -9.15124 | 6363 ft | 235 kts | 323° |
| 2026-05-04 15:16 | 52.52951 | -9.18329 | 5750 ft | 232 kts | 333° |
| 2026-05-04 15:17 | 52.54437 | -9.19166 | 5626 ft | 222 kts | 351° |
| 2026-05-04 15:17 | 52.57317 | -9.18486 | 5054 ft | 207 kts | 26° |
| 2026-05-04 15:17 | 52.58488 | -9.17122 | 4648 ft | 207 kts | 44° |
| 2026-05-04 15:18 | 52.59402 | -9.15296 | 4303 ft | 204 kts | 50° |
| 2026-05-04 15:18 | 52.60248 | -9.13514 | 4184 ft | 193 kts | 50° |
| 2026-05-04 15:18 | 52.61066 | -9.11792 | 4096 ft | 195 kts | 50° |
| 2026-05-04 15:19 | 52.62937 | -9.07855 | 4004 ft | 225 kts | 49° |
| 2026-05-04 15:19 | 52.64120 | -9.06239 | 3843 ft | 221 kts | 23° |
| 2026-05-04 15:19 | 52.67012 | -9.06539 | 3191 ft | 220 kts | 322° |
| 2026-05-04 15:20 | 52.67848 | -9.08540 | 3050 ft | 216 kts | 288° |
| 2026-05-04 15:20 | 52.67899 | -9.10967 | 3001 ft | 212 kts | 267° |
| 2026-05-04 15:20 | 52.67766 | -9.13379 | 3007 ft | 210 kts | 268° |
| 2026-05-04 15:20 | 52.67642 | -9.15773 | 3009 ft | 209 kts | 268° |
| 2026-05-04 15:21 | 52.67518 | -9.18167 | 3007 ft | 209 kts | 267° |
| 2026-05-04 15:21 | 52.67049 | -9.20423 | 3007 ft | 214 kts | 234° |
| 2026-05-04 15:21 | 52.64441 | -9.22754 | 3015 ft | 218 kts | 199° |
| 2026-05-04 15:22 | 52.62976 | -9.23400 | 3017 ft | 219 kts | 183° |
| 2026-05-04 15:22 | 52.61553 | -9.22928 | 3030 ft | 203 kts | 152° |
| 2026-05-04 15:22 | 52.59701 | -9.19742 | 3018 ft | 192 kts | 109° |
| 2026-05-04 15:23 | 52.59409 | -9.17641 | 3012 ft | 187 kts | 89° |
| 2026-05-04 15:23 | 52.59571 | -9.15551 | 3015 ft | 184 kts | 69° |
| 2026-05-04 15:23 | 52.60154 | -9.13711 | 2902 ft | 180 kts | 50° |
| 2026-05-04 15:23 | 52.60915 | -9.12112 | 2717 ft | 178 kts | 51° |
| 2026-05-04 15:24 | 52.62436 | -9.08909 | 2247 ft | 179 kts | 50° |
| 2026-05-04 15:24 | 52.63966 | -9.05678 | 1781 ft | 174 kts | 49° |
| 2026-05-04 15:25 | 52.64682 | -9.04163 | 1583 ft | 157 kts | 49° |
| 2026-05-04 15:25 | 52.65325 | -9.02815 | 1342 ft | 144 kts | 48° |
| 2026-05-04 15:25 | 52.65926 | -9.01552 | 1079 ft | 137 kts | 49° |
| 2026-05-04 15:26 | 52.67067 | -8.99097 | 746 ft | 134 kts | 49° |
| 2026-05-04 15:26 | 52.67646 | -8.97902 | 623 ft | 133 kts | 48° |
| 2026-05-04 15:26 | 52.68784 | -8.95489 | 282 ft | 133 kts | 48° |
| 2026-05-04 15:27 | 52.69351 | -8.94286 | 105 ft | 132 kts | 49° |
| 2026-05-04 15:27 | 52.70276 | -8.92342 | 32 ft | 65 kts | 53° |
| 2026-05-04 15:28 | 52.70688 | -8.91456 | 27 ft | 36 kts | 52° |
| 2026-05-04 15:28 | 52.70786 | -8.91216 | 27 ft | 15 kts | 95° |
| 2026-05-04 15:28 | 52.70663 | -8.91140 | 23 ft | 12 kts | 169° |
| 2026-05-04 15:29 | 52.70571 | -8.91111 | 23 ft | 16 kts | 169° |
| 2026-05-04 15:30 | 52.70048 | -8.91088 | 23 ft | 22 kts | 198° |
| 2026-05-04 15:30 | 52.69567 | -8.91357 | 25 ft | 24 kts | 199° |
| 2026-05-04 15:31 | 52.69278 | -8.91516 | 24 ft | 15 kts | 200° |
| 2026-05-04 15:31 | 52.69284 | -8.91647 | 24 ft | 14 kts | 308° |
| 2026-05-04 15:32 | 52.69445 | -8.91943 | 22 ft | 4 kts | 213° |
| 2026-05-04 15:32 | 52.69386 | -8.91951 | 23 ft | 3 kts | 185° |
| 2026-05-04 15:33 | 52.69370 | -8.91953 | 25 ft | 0 kts | 185° |